Time;durP1;ratioP1;P1;durP2;ratioP2;P2;SDS_P1;SDS_P2;PMS_P1;PMS_P2;Temp;Humidity;BMP_temperature;BMP_pressure;BME280_temperature;BME280_humidity;BME280_pressure;Samples;Min_cycle;Max_cycle;Signal;HPM_P1;HPM_P2
2022/03/06 00:00:32;;;;;;;15.80;11.50;;;3.60;1.00;4.10;101029.00;;;;5010093;28;21710;-78
2022/03/06 00:03:04;;;;;;;16.43;11.67;;;3.60;1.00;4.00;101035.00;;;;5009082;28;20458;-80
2022/03/06 00:05:32;;;;;;;15.60;11.10;;;3.50;1.00;4.00;101025.00;;;;4994743;28;20478;-77
2022/03/06 00:08:02;;;;;;;14.83;10.47;;;3.40;1.00;4.20;101045.00;;;;4994393;28;20461;-78
2022/03/06 00:10:31;;;;;;;13.33;9.87;;;3.60;1.00;4.10;101044.00;;;;5005059;28;20952;-77
2022/03/06 00:13:00;;;;;;;12.10;10.27;;;3.40;1.00;4.00;101037.00;;;;4995157;28;20885;-77
2022/03/06 00:15:28;;;;;;;13.30;10.47;;;3.40;1.00;3.90;101039.00;;;;4998222;28;20480;-77
2022/03/06 00:17:57;;;;;;;14.20;10.80;;;3.40;1.00;3.90;101018.00;;;;4992663;28;20508;-78
2022/03/06 00:20:27;;;;;;;12.13;9.73;;;3.30;1.00;3.90;101033.00;;;;4996085;28;20442;-79
2022/03/06 00:22:55;;;;;;;14.47;10.13;;;3.20;1.00;3.90;101030.00;;;;5006178;28;20459;-78
2022/03/06 00:25:25;;;;;;;12.03;10.50;;;3.30;1.00;3.90;101041.00;;;;5011484;28;20490;-79
2022/03/06 00:27:54;;;;;;;12.67;9.47;;;3.20;1.00;3.80;101035.00;;;;4994656;28;20461;-77
2022/03/06 00:30:22;;;;;;;13.40;11.17;;;3.10;1.00;3.70;101045.00;;;;5011132;28;20532;-76
2022/03/06 00:32:50;;;;;;;14.20;11.20;;;3.10;1.00;3.70;101052.00;;;;5011261;28;20556;-77
2022/03/06 00:35:19;;;;;;;11.87;9.83;;;3.10;1.00;3.70;101052.00;;;;4988415;28;20847;-77
2022/03/06 00:37:47;;;;;;;12.33;10.43;;;3.00;1.00;3.70;101036.00;;;;4994398;28;20458;-77
2022/03/06 00:40:16;;;;;;;15.50;10.27;;;3.10;1.00;3.80;101054.00;;;;5013474;28;20447;-76
2022/03/06 00:42:45;;;;;;;14.60;10.77;;;3.30;1.00;3.60;101046.00;;;;5001306;28;20481;-78
2022/03/06 00:45:14;;;;;;;12.13;9.37;;;3.00;1.00;3.70;101065.00;;;;5010358;28;20504;-80
2022/03/06 00:47:42;;;;;;;12.70;9.87;;;3.00;1.00;3.80;101032.00;;;;5024233;28;20460;-77
2022/03/06 00:50:12;;;;;;;14.40;10.40;;;3.00;1.00;3.40;101065.00;;;;5017105;28;20517;-78
2022/03/06 00:52:40;;;;;;;14.43;10.93;;;3.00;1.00;3.60;101030.00;;;;5031158;28;20473;-76
2022/03/06 00:55:10;;;;;;;14.80;10.10;;;2.90;1.00;3.60;101040.00;;;;5018591;28;20489;-77
2022/03/06 00:57:38;;;;;;;13.07;10.03;;;2.90;1.00;3.50;101028.00;;;;5016603;28;20446;-77
2022/03/06 01:00:11;;;;;;;16.93;11.17;;;2.90;1.00;3.30;101022.00;;;;5013533;28;21407;-76
2022/03/06 01:02:39;;;;;;;17.17;12.17;;;2.80;1.00;3.40;101024.00;;;;5006696;28;20451;-76
2022/03/06 01:05:09;;;;;;;11.47;9.90;;;2.70;1.00;3.40;101009.00;;;;4999479;28;20473;-77
2022/03/06 01:07:38;;;;;;;14.20;10.60;;;2.70;1.00;3.40;100989.00;;;;5009271;28;20455;-77
2022/03/06 01:10:09;;;;;;;16.13;10.97;;;2.80;1.00;3.50;101024.00;;;;5016251;28;20486;-76
2022/03/06 01:12:37;;;;;;;12.63;9.80;;;2.90;1.00;3.60;101028.00;;;;5016538;28;20531;-78
2022/03/06 01:15:08;;;;;;;14.13;11.67;;;2.90;1.00;3.70;101028.00;;;;5009793;28;20494;-77
2022/03/06 01:17:36;;;;;;;14.47;11.53;;;3.00;1.00;3.90;101033.00;;;;5009283;28;20463;-78
2022/03/06 01:20:06;;;;;;;16.63;11.10;;;3.20;1.00;217.30;158318.00;;;;5026664;28;20459;-78
2022/03/06 01:22:35;;;;;;;14.20;10.60;;;3.30;1.00;3.80;101037.00;;;;5008628;28;20464;-77
2022/03/06 01:25:05;;;;;;;12.47;9.93;;;3.30;1.00;3.90;101009.00;;;;5004782;28;20849;-76
2022/03/06 01:27:33;;;;;;;17.30;10.97;;;3.30;1.00;3.90;101031.00;;;;5001778;28;20467;-76
2022/03/06 01:30:01;;;;;;;13.07;11.07;;;3.40;1.00;4.00;101033.00;;;;5013216;28;20451;-77
2022/03/06 01:32:31;;;;;;;15.27;10.80;;;3.40;1.00;4.00;101023.00;;;;4998179;28;20464;-76
2022/03/06 01:35:00;;;;;;;10.07;8.90;;;3.50;1.00;4.10;101011.00;;;;4989659;28;20481;-76
2022/03/06 01:37:28;;;;;;;13.87;10.73;;;3.50;1.00;4.00;101029.00;;;;5014613;28;20973;-77
2022/03/06 01:39:57;;;;;;;11.67;9.63;;;3.50;1.00;4.20;101030.00;;;;4999265;28;20518;-77
2022/03/06 01:42:28;;;;;;;13.53;10.17;;;3.60;1.00;4.10;101026.00;;;;4997982;28;21018;-76
2022/03/06 01:44:57;;;;;;;15.40;9.77;;;3.60;1.00;4.20;100996.00;;;;4999542;28;20484;-76
2022/03/06 01:47:35;;;;;;;14.50;11.60;;;3.70;1.00;4.20;100955.00;;;;4999802;28;20490;-79
2022/03/06 01:50:06;;;;;;;12.63;9.20;;;3.70;1.00;4.40;101026.00;;;;5008240;28;20459;-76
2022/03/06 01:52:34;;;;;;;13.80;10.20;;;3.80;1.00;4.40;101015.00;;;;4999292;28;20493;-74
2022/03/06 01:55:03;;;;;;;14.17;10.17;;;3.80;1.00;4.40;101038.00;;;;4995697;28;20492;-77
2022/03/06 01:57:33;;;;;;;14.20;10.33;;;3.90;1.00;4.40;101030.00;;;;4996086;28;21027;-76
2022/03/06 02:00:04;;;;;;;13.50;10.07;;;4.10;1.00;4.60;101022.00;;;;4998268;28;20981;-76
2022/03/06 02:02:41;;;;;;;12.97;9.47;;;4.00;1.00;4.80;101027.00;;;;5000159;28;20514;-75
2022/03/06 02:05:11;;;;;;;12.00;9.43;;;4.10;1.00;4.80;101026.00;;;;5015509;28;20495;-78
2022/03/06 02:07:39;;;;;;;11.47;9.63;;;4.20;1.00;4.70;101001.00;;;;4995390;28;20466;-78
2022/03/06 02:10:10;;;;;;;11.00;8.90;;;4.20;1.00;4.60;101018.00;;;;5002517;28;20458;-77
2022/03/06 02:12:39;;;;;;;11.20;9.17;;;4.20;1.00;4.60;101028.00;;;;4996816;28;20454;-76
2022/03/06 02:15:10;;;;;;;12.90;9.10;;;4.20;1.00;4.80;101012.00;;;;4998266;28;20484;-75
2022/03/06 02:17:40;;;;;;;10.03;8.47;;;4.30;1.00;4.80;101016.00;;;;4994324;28;20465;-76
2022/03/06 02:20:12;;;;;;;10.67;9.30;;;4.30;1.00;4.80;101022.00;;;;4985708;28;20874;-79
2022/03/06 02:22:43;;;;;;;12.07;9.40;;;4.30;1.00;4.80;101023.00;;;;4993382;28;20494;-78
2022/03/06 02:25:15;;;;;;;11.43;8.70;;;4.30;1.00;4.80;101001.00;;;;4985376;28;21084;-78
2022/03/06 02:27:44;;;;;;;14.80;9.13;;;4.30;1.00;4.70;101009.00;;;;4997462;28;20820;-79
2022/03/06 02:30:15;;;;;;;10.70;9.03;;;4.20;1.00;4.70;101010.00;;;;4998810;28;20828;-76
2022/03/06 02:32:47;;;;;;;14.90;9.80;;;4.00;1.00;4.70;101018.00;;;;4997145;28;20449;-76
2022/03/06 02:35:16;;;;;;;12.50;9.50;;;4.20;1.00;4.70;101027.00;;;;5006117;28;20848;-75
2022/03/06 02:37:47;;;;;;;12.40;10.20;;;4.20;1.00;4.60;101023.00;;;;5015553;28;20466;-80
2022/03/06 02:40:16;;;;;;;13.40;10.03;;;4.20;1.00;4.60;101014.00;;;;5021379;28;20458;-80
2022/03/06 02:42:47;;;;;;;11.20;9.80;;;4.20;1.00;4.60;101022.00;;;;5004072;28;20453;-76
2022/03/06 02:45:19;;;;;;;11.33;9.40;;;4.10;1.00;4.60;101021.00;;;;4986100;28;20561;-78
2022/03/06 02:47:48;;;;;;;13.33;10.60;;;4.10;1.00;4.60;101026.00;;;;4993154;28;20469;-80
2022/03/06 02:50:20;;;;;;;12.53;10.20;;;4.10;1.00;4.50;101001.00;;;;4994348;28;20447;-77
2022/03/06 02:52:51;;;;;;;14.60;9.60;;;4.00;1.00;4.40;101008.00;;;;5010744;28;21082;-76
2022/03/06 02:55:19;;;;;;;12.47;9.83;;;4.00;1.00;4.40;101010.00;;;;4995683;28;20467;-78
2022/03/06 02:57:48;;;;;;;13.37;10.17;;;3.90;1.00;4.30;100994.00;;;;4994224;28;20461;-79
2022/03/06 03:00:19;;;;;;;11.57;9.20;;;3.80;1.00;4.30;101004.00;;;;4995424;28;20454;-76
2022/03/06 03:02:49;;;;;;;11.30;9.30;;;3.80;1.00;4.20;101007.00;;;;4995019;28;20829;-78
2022/03/06 03:05:19;;;;;;;11.80;9.00;;;3.70;1.00;4.20;101009.00;;;;5008740;28;20474;-77
2022/03/06 03:07:50;;;;;;;13.33;9.80;;;3.60;1.00;4.10;101006.00;;;;4994922;28;20454;-82
2022/03/06 03:10:23;;;;;;;11.63;9.70;;;3.60;1.00;4.00;100999.00;;;;4996199;28;20465;-77
2022/03/06 03:12:52;;;;;;;11.83;9.30;;;3.50;1.00;3.90;101020.00;;;;4995042;28;20458;-77
2022/03/06 03:15:21;;;;;;;13.77;10.20;;;3.40;1.00;3.70;101010.00;;;;4993072;28;20496;-80
2022/03/06 03:17:49;;;;;;;12.30;9.67;;;3.30;1.00;3.80;101013.00;;;;4984773;28;20457;-77
2022/03/06 03:20:18;;;;;;;15.70;9.97;;;3.30;1.00;3.70;101010.00;;;;5012917;28;20563;-78
2022/03/06 03:22:48;;;;;;;11.00;9.47;;;2.90;1.00;3.60;101006.00;;;;5004154;28;20855;-77
2022/03/06 03:25:17;;;;;;;12.90;10.50;;;3.10;1.00;3.50;100997.00;;;;5010077;28;20510;-81
2022/03/06 03:27:45;;;;;;;12.23;9.67;;;3.00;1.00;3.40;67008.00;;;;5014216;28;20483;-78
2022/03/06 03:30:14;;;;;;;14.10;10.87;;;3.10;1.00;3.30;101007.00;;;;5016250;28;20451;-76
2022/03/06 03:32:42;;;;;;;12.10;9.37;;;2.80;1.00;3.20;101008.00;;;;5024907;28;20521;-78
2022/03/06 03:35:11;;;;;;;11.80;9.27;;;2.70;1.00;3.10;101023.00;;;;5034085;28;20480;-76
2022/03/06 03:37:39;;;;;;;12.20;9.67;;;2.60;1.00;3.00;101024.00;;;;5014943;28;20454;-78
2022/03/06 03:40:10;;;;;;;12.17;10.27;;;2.50;1.00;3.00;101031.00;;;;5015278;28;20449;-76
2022/03/06 03:42:39;;;;;;;12.03;10.17;;;2.40;1.00;2.90;101035.00;;;;5028234;28;20453;-76
2022/03/06 03:45:09;;;;;;;14.23;10.50;;;2.30;1.00;2.80;101035.00;;;;5020122;28;20477;-77
2022/03/06 03:47:37;;;;;;;11.60;10.37;;;2.30;1.00;2.80;101039.00;;;;5004848;28;20470;-77
2022/03/06 03:50:07;;;;;;;13.30;10.17;;;2.20;1.00;2.70;101039.00;;;;4997608;28;20450;-77
2022/03/06 03:52:35;;;;;;;16.37;10.10;;;2.20;1.00;2.80;101051.00;;;;5012197;28;20461;-77
2022/03/06 03:55:05;;;;;;;15.53;10.67;;;2.20;1.00;2.70;101057.00;;;;4994083;28;20512;-77
2022/03/06 03:57:34;;;;;;;14.10;10.47;;;2.10;1.00;2.70;101023.00;;;;5000688;28;20461;-76
2022/03/06 04:00:05;;;;;;;13.53;9.93;;;2.10;1.00;2.60;101070.00;;;;5008662;28;20469;-76
2022/03/06 04:02:34;;;;;;;11.80;10.50;;;2.00;1.00;2.50;101072.00;;;;5002485;28;20458;-75
2022/03/06 04:05:03;;;;;;;14.37;10.83;;;1.90;1.00;2.40;101062.00;;;;5014628;28;20480;-76
2022/03/06 04:07:31;;;;;;;14.07;11.47;;;1.90;1.00;2.40;101079.00;;;;5014897;28;20475;-77
2022/03/06 04:09:59;;;;;;;13.90;9.60;;;1.90;1.00;2.40;101075.00;;;;5000785;28;20447;-76
2022/03/06 04:12:28;;;;;;;14.23;10.93;;;1.80;1.00;2.40;101074.00;;;;5015696;28;20454;-76
2022/03/06 04:14:57;;;;;;;13.50;10.33;;;1.80;1.00;2.40;101082.00;;;;5001518;28;20481;-77
2022/03/06 04:17:25;;;;;;;14.57;10.60;;;1.80;1.00;2.30;101074.00;;;;5001774;28;20832;-78
2022/03/06 04:19:54;;;;;;;13.20;10.80;;;1.80;1.00;2.30;101087.00;;;;4999718;28;20458;-76
2022/03/06 04:22:22;;;;;;;13.60;10.80;;;1.80;1.00;2.20;101087.00;;;;4999287;28;20534;-75
2022/03/06 04:24:50;;;;;;;12.63;10.87;;;1.70;1.00;2.20;101072.00;;;;4999997;28;20466;-76
2022/03/06 04:27:18;;;;;;;11.93;9.33;;;1.70;1.00;2.20;101094.00;;;;5000853;28;20474;-76
2022/03/06 04:29:47;;;;;;;11.10;9.57;;;1.70;1.00;2.20;101079.00;;;;5000400;28;20463;-77
2022/03/06 04:32:16;;;;;;;14.30;10.97;;;1.60;1.00;2.10;101083.00;;;;5000705;28;20455;-76
2022/03/06 04:34:45;;;;;;;13.20;9.47;;;1.60;1.00;2.10;101086.00;;;;5004352;28;20485;-79
2022/03/06 04:37:13;;;;;;;13.83;10.67;;;1.70;1.00;2.00;101093.00;;;;5012822;28;20461;-76
2022/03/06 04:39:42;;;;;;;14.20;10.20;;;1.40;1.00;2.00;101077.00;;;;5012718;28;20455;-76
2022/03/06 04:42:10;;;;;;;13.03;10.57;;;1.50;1.00;2.00;101067.00;;;;4999229;28;20494;-80
2022/03/06 04:44:39;;;;;;;12.87;9.67;;;1.40;1.00;2.00;101089.00;;;;5016605;28;20463;-78
2022/03/06 04:47:08;;;;;;;13.00;10.27;;;1.40;1.00;2.10;101089.00;;;;5016926;28;20478;-80
2022/03/06 04:49:38;;;;;;;14.87;10.20;;;1.40;1.00;2.20;101073.00;;;;5036221;28;20445;-81
2022/03/06 04:52:07;;;;;;;12.40;10.23;;;1.50;1.00;2.20;101099.00;;;;5014847;28;20484;-76
2022/03/06 04:54:35;;;;;;;13.30;10.40;;;1.60;1.00;2.10;101104.00;;;;5021837;28;20477;-76
2022/03/06 04:57:04;;;;;;;12.00;9.97;;;1.60;1.00;2.10;101108.00;;;;5019284;28;20462;-80
2022/03/06 04:59:33;;;;;;;12.60;10.30;;;1.60;1.00;2.10;101102.00;;;;5014547;28;20466;-79
2022/03/06 05:02:01;;;;;;;12.83;10.87;;;1.50;1.00;2.20;101083.00;;;;5021409;28;20427;-77
2022/03/06 05:04:30;;;;;;;12.87;10.17;;;1.50;1.00;2.10;101101.00;;;;5008890;28;20474;-76
2022/03/06 05:06:59;;;;;;;13.03;10.50;;;1.60;1.00;2.10;101115.00;;;;5003799;28;20522;-76
2022/03/06 05:09:28;;;;;;;13.80;10.80;;;1.60;1.00;2.10;101079.00;;;;4997596;28;20481;-76
2022/03/06 05:11:56;;;;;;;13.00;10.17;;;1.50;1.00;2.00;101060.00;;;;5008813;28;20463;-76
2022/03/06 05:14:24;;;;;;;12.30;10.30;;;1.50;1.00;2.00;101085.00;;;;5003740;28;20485;-75
2022/03/06 05:16:52;;;;;;;12.10;10.80;;;1.50;1.00;2.00;101100.00;;;;5018020;28;22162;-75
2022/03/06 05:19:21;;;;;;;13.33;10.20;;;1.50;1.00;2.00;101083.00;;;;5018636;28;20549;-82
2022/03/06 05:21:49;;;;;;;16.70;12.67;;;1.40;1.00;1.90;101092.00;;;;5022146;28;20468;-82
2022/03/06 05:24:19;;;;;;;12.43;10.50;;;1.40;1.00;1.90;101104.00;;;;5022642;28;20546;-77
2022/03/06 05:26:47;;;;;;;14.17;11.30;;;1.70;1.00;1.80;101119.00;;;;5020808;28;20476;-76
2022/03/06 05:29:15;;;;;;;14.90;10.87;;;1.80;1.00;1.80;101117.00;;;;5020158;28;20456;-76
2022/03/06 05:31:46;;;;;;;13.87;10.67;;;1.30;1.00;1.80;101088.00;;;;5018792;28;20443;-78
2022/03/06 05:34:15;;;;;;;14.17;10.80;;;1.30;1.00;1.80;101103.00;;;;5018329;28;20454;-77
2022/03/06 05:36:43;;;;;;;17.43;13.00;;;1.30;1.00;1.90;101112.00;;;;5030698;28;20457;-78
2022/03/06 05:39:12;;;;;;;17.23;11.83;;;1.30;1.00;2.00;101107.00;;;;5026933;28;20556;-78
2022/03/06 05:41:42;;;;;;;13.17;10.77;;;1.30;1.00;1.90;101100.00;;;;5034273;28;20472;-78
2022/03/06 05:44:10;;;;;;;14.43;11.37;;;1.30;1.00;1.90;101054.00;;;;5024270;28;20438;-77
2022/03/06 05:46:38;;;;;;;13.50;11.27;;;1.30;1.00;2.00;101115.00;;;;5003904;28;20455;-77
2022/03/06 05:49:12;;;;;;;14.00;10.80;;;1.30;1.00;2.00;101109.00;;;;5003818;28;20482;-78
2022/03/06 05:51:41;;;;;;;13.80;10.70;;;1.10;1.00;1.90;101134.00;;;;5000240;28;20458;-78
2022/03/06 05:54:10;;;;;;;14.10;11.10;;;1.40;1.00;2.00;101136.00;;;;5015442;28;20459;-76
2022/03/06 05:56:40;;;;;;;13.77;11.23;;;1.40;1.00;2.00;101121.00;;;;5012297;28;20443;-76
2022/03/06 05:59:09;;;;;;;12.70;10.77;;;1.40;1.00;2.10;101122.00;;;;4998837;28;20481;-76
2022/03/06 06:01:38;;;;;;;12.80;10.27;;;1.50;1.00;2.10;101111.00;;;;5005932;28;20504;-76
2022/03/06 06:04:06;;;;;;;13.30;11.50;;;1.60;1.00;2.20;101148.00;;;;5012941;28;20454;-77
2022/03/06 06:06:35;;;;;;;16.40;11.57;;;1.60;1.00;2.20;101145.00;;;;5019983;28;20477;-78
2022/03/06 06:09:04;;;;;;;14.67;10.40;;;1.90;1.00;2.20;101140.00;;;;5020853;28;20486;-77
2022/03/06 06:11:32;;;;;;;11.83;9.60;;;1.60;1.00;2.20;101136.00;;;;5021716;28;20445;-76
2022/03/06 06:14:03;;;;;;;12.50;9.33;;;1.70;1.00;2.40;101137.00;;;;5016920;28;20446;-77
2022/03/06 06:16:31;;;;;;;13.33;9.80;;;1.80;1.00;2.40;101155.00;;;;5026270;28;20440;-75
2022/03/06 06:19:00;;;;;;;11.43;9.50;;;1.80;1.00;2.60;101156.00;;;;5011064;28;20509;-77
2022/03/06 06:21:28;;;;;;;12.67;10.67;;;2.00;1.00;2.60;101154.00;;;;4994209;28;20455;-76
2022/03/06 06:23:57;;;;;;;14.97;9.97;;;2.10;1.00;2.90;101143.00;;;;4995211;28;20455;-77
2022/03/06 06:26:26;;;;;;;12.80;9.43;;;2.30;1.00;3.00;101157.00;;;;4994158;28;20975;-76
2022/03/06 06:28:56;;;;;;;10.43;9.27;;;2.40;1.00;3.10;66931.00;;;;4994826;28;20475;-76
2022/03/06 06:31:26;;;;;;;12.20;9.83;;;2.50;1.00;3.30;101150.00;;;;4993713;28;20490;-76
2022/03/06 06:33:55;;;;;;;14.20;10.60;;;2.70;1.00;3.30;66971.00;;;;4992538;28;20462;-76
2022/03/06 06:36:23;;;;;;;12.07;10.00;;;2.80;1.00;3.40;101153.00;;;;4994957;28;21067;-77
2022/03/06 06:38:52;;;;;;;15.13;11.47;;;2.80;1.00;3.40;101139.00;;;;4989533;28;20462;-76
2022/03/06 06:41:21;;;;;;;12.37;10.43;;;2.90;1.00;3.50;101136.00;;;;4994776;28;20492;-77
2022/03/06 06:43:49;;;;;;;12.50;10.30;;;2.90;1.00;3.50;101142.00;;;;4991131;28;21019;-78
2022/03/06 06:46:18;;;;;;;11.13;9.83;;;3.00;1.00;3.50;101150.00;;;;4985771;28;20470;-77
2022/03/06 06:48:47;;;;;;;12.37;10.03;;;3.00;1.00;3.60;101161.00;;;;5004715;28;20481;-77
2022/03/06 06:51:16;;;;;;;13.47;11.07;;;3.10;1.00;3.60;101167.00;;;;5008173;28;20521;-78
2022/03/06 06:53:44;;;;;;;13.53;11.03;;;3.10;1.00;3.70;101148.00;;;;4989028;28;20459;-77
2022/03/06 06:56:12;;;;;;;11.90;10.10;;;3.10;1.00;3.70;101165.00;;;;4992398;28;20515;-77
2022/03/06 06:58:41;;;;;;;12.73;10.30;;;3.20;1.00;3.80;101169.00;;;;5007200;28;20466;-77
2022/03/06 07:01:09;;;;;;;13.93;10.57;;;3.20;1.00;3.80;101164.00;;;;4997332;28;20521;-77
2022/03/06 07:03:38;;;;;;;14.90;11.23;;;3.20;1.00;3.70;101190.00;;;;4990958;28;20497;-77
2022/03/06 07:06:08;;;;;;;12.90;10.57;;;3.20;1.00;3.70;101173.00;;;;4995865;28;20478;-76
2022/03/06 07:08:37;;;;;;;12.80;10.80;;;3.20;1.00;3.80;101152.00;;;;4995215;28;20472;-76
2022/03/06 07:11:05;;;;;;;13.20;10.77;;;3.30;1.00;3.90;101183.00;;;;4995252;28;20459;-77
2022/03/06 07:13:34;;;;;;;13.07;10.23;;;3.30;1.00;3.90;101168.00;;;;5010430;28;20484;-76
2022/03/06 07:16:02;;;;;;;12.33;10.63;;;3.30;1.00;3.70;67067.00;;;;4993283;28;21105;-76
2022/03/06 07:18:31;;;;;;;14.67;11.40;;;3.20;1.00;3.80;101175.00;;;;5010409;28;20493;-77
2022/03/06 07:21:02;;;;;;;12.90;11.50;;;3.20;1.00;3.70;101184.00;;;;4992300;28;20513;-77
2022/03/06 07:23:32;;;;;;;14.37;11.10;;;3.20;1.00;3.90;101189.00;;;;5014285;28;20513;-77
2022/03/06 07:26:00;;;;;;;15.60;11.17;;;3.30;1.00;4.00;101173.00;;;;4998498;28;20561;-77
2022/03/06 07:28:29;;;;;;;14.60;11.03;;;3.40;1.00;3.90;101180.00;;;;5009577;28;20486;-79
2022/03/06 07:30:57;;;;;;;13.83;11.30;;;3.40;1.00;4.10;101164.00;;;;5004018;28;20557;-77
2022/03/06 07:33:26;;;;;;;18.40;13.07;;;3.90;1.00;4.40;101167.00;;;;5000292;28;20458;-76
2022/03/06 07:35:54;;;;;;;15.53;13.10;;;3.70;1.00;4.60;101167.00;;;;5000946;28;20501;-80
2022/03/06 07:38:22;;;;;;;13.90;11.50;;;3.90;1.00;4.70;101162.00;;;;5003972;28;20544;-76
2022/03/06 07:40:52;;;;;;;16.00;11.53;;;4.20;1.00;4.70;101157.00;;;;4999728;28;20451;-81
2022/03/06 07:43:20;;;;;;;13.83;12.13;;;4.10;1.00;4.80;101176.00;;;;5026258;28;20450;-76
2022/03/06 07:45:49;;;;;;;14.40;11.80;;;4.10;1.00;4.90;101178.00;;;;5008725;28;20653;-79
2022/03/06 07:48:17;;;;;;;13.50;10.70;;;4.50;1.00;4.90;101157.00;;;;5003862;28;20467;-77
2022/03/06 07:50:46;;;;;;;12.80;11.03;;;4.30;1.00;5.00;101170.00;;;;5014078;28;20442;-79
2022/03/06 07:53:15;;;;;;;13.50;11.00;;;4.30;1.00;5.10;101185.00;;;;5014309;28;20899;-77
2022/03/06 07:55:43;;;;;;;13.77;11.33;;;4.50;1.00;5.20;101164.00;;;;5006643;28;21144;-78
2022/03/06 07:58:13;;;;;;;14.23;11.60;;;4.60;1.00;5.20;101175.00;;;;5009475;28;20446;-80
2022/03/06 08:00:41;;;;;;;13.00;10.10;;;4.60;1.00;5.20;101177.00;;;;5009742;28;20465;-77
2022/03/06 08:03:10;;;;;;;13.63;10.77;;;4.60;1.00;5.20;101186.00;;;;5003320;28;20461;-78
2022/03/06 08:05:48;;;;;;;12.77;11.33;;;4.70;1.00;5.20;101179.00;;;;5003593;28;20469;-77
2022/03/06 08:08:16;;;;;;;14.07;11.13;;;4.70;1.00;5.20;101176.00;;;;5000842;28;20549;-79
2022/03/06 08:10:45;;;;;;;12.67;10.40;;;4.80;1.00;5.30;101176.00;;;;5014132;28;20980;-77
2022/03/06 08:13:20;;;;;;;13.97;11.07;;;4.90;1.00;5.40;101192.00;;;;5001528;28;20460;-78
2022/03/06 08:15:49;;;;;;;15.33;10.80;;;4.80;1.00;5.40;101196.00;;;;5008781;28;21034;-77
2022/03/06 08:18:17;;;;;;;12.80;10.57;;;4.90;1.00;5.60;101186.00;;;;4989253;28;20617;-78
2022/03/06 08:20:45;;;;;;;15.20;12.33;;;5.00;1.00;5.60;101190.00;;;;4992574;28;20461;-77
2022/03/06 08:23:14;;;;;;;15.07;10.97;;;5.10;1.00;5.60;101174.00;;;;5013979;28;20454;-77
2022/03/06 08:25:42;;;;;;;11.73;10.10;;;5.10;1.00;5.50;101212.00;;;;5000093;28;21075;-77
2022/03/06 08:28:11;;;;;;;15.20;11.40;;;5.00;1.00;5.50;101215.00;;;;4996804;28;20458;-77
2022/03/06 08:30:40;;;;;;;13.30;11.83;;;5.00;1.00;5.50;101203.00;;;;4995261;28;20454;-76
2022/03/06 08:33:09;;;;;;;12.47;10.90;;;5.00;1.00;5.60;101189.00;;;;4997688;28;20468;-76
2022/03/06 08:35:37;;;;;;;13.67;11.57;;;5.10;1.00;5.50;101202.00;;;;4995226;28;20510;-77
2022/03/06 08:38:10;;;;;;;11.77;10.43;;;5.10;1.00;5.60;101179.00;;;;4995087;28;20557;-79
2022/03/06 08:40:38;;;;;;;13.70;10.80;;;5.10;1.00;5.90;101195.00;;;;5000957;28;20469;-77
2022/03/06 08:43:07;;;;;;;14.53;10.60;;;5.60;1.00;5.90;101203.00;;;;5010448;28;20547;-78
2022/03/06 08:45:36;;;;;;;13.20;10.87;;;5.40;1.00;6.10;101213.00;;;;5020031;28;20478;-78
2022/03/06 08:48:06;;;;;;;12.03;10.30;;;5.50;1.00;6.10;101204.00;;;;5009106;28;20454;-78
2022/03/06 08:50:35;;;;;;;13.97;11.20;;;5.70;1.00;6.20;101213.00;;;;5024060;28;20751;-78
2022/03/06 08:53:03;;;;;;;14.63;11.93;;;5.70;1.00;6.20;101211.00;;;;5020595;28;20471;-78
2022/03/06 08:55:32;;;;;;;14.30;10.87;;;5.70;1.00;6.30;101210.00;;;;5022084;28;20473;-78
2022/03/06 08:58:00;;;;;;;12.47;10.63;;;6.00;1.00;6.40;101222.00;;;;5021540;28;20510;-77
2022/03/06 09:00:28;;;;;;;12.30;10.90;;;5.90;1.00;6.40;101190.00;;;;5029284;28;20959;-78
2022/03/06 09:02:57;;;;;;;13.50;11.53;;;5.90;1.00;6.40;101214.00;;;;5004583;28;20458;-78
2022/03/06 09:05:27;;;;;;;13.17;11.77;;;6.00;1.00;6.30;101232.00;;;;5007339;28;20485;-77
2022/03/06 09:07:56;;;;;;;13.40;10.70;;;6.10;1.00;6.30;101227.00;;;;5023094;28;20455;-76
2022/03/06 09:10:24;;;;;;;13.40;10.70;;;5.80;1.00;6.30;101217.00;;;;5018177;28;20469;-78
2022/03/06 09:12:53;;;;;;;13.30;10.53;;;5.80;1.00;6.40;101214.00;;;;5016021;28;20462;-76
2022/03/06 09:15:22;;;;;;;12.53;10.33;;;5.90;1.00;6.50;101208.00;;;;5014711;28;20537;-77
2022/03/06 09:17:54;;;;;;;14.47;10.70;;;6.00;1.00;6.40;101218.00;;;;5019805;28;20453;-77
2022/03/06 09:20:22;;;;;;;12.80;10.87;;;6.00;1.00;6.40;101207.00;;;;5037139;28;20458;-78
2022/03/06 09:22:52;;;;;;;13.73;10.90;;;5.90;1.00;6.40;101218.00;;;;5026161;28;20446;-76
2022/03/06 09:25:21;;;;;;;12.87;10.90;;;5.90;1.00;6.50;101203.00;;;;5023834;28;20505;-78
2022/03/06 09:27:50;;;;;;;13.00;11.17;;;6.00;1.00;6.50;101206.00;;;;5044287;28;20585;-76
2022/03/06 09:30:18;;;;;;;12.70;10.47;;;6.10;1.00;6.60;101225.00;;;;5021473;28;20566;-75
2022/03/06 09:32:47;;;;;;;13.47;11.30;;;6.40;1.00;6.70;101206.00;;;;5035469;28;20450;-77
2022/03/06 09:35:16;;;;;;;13.97;11.20;;;6.20;1.00;6.80;101182.00;;;;5022770;28;20565;-77
2022/03/06 09:37:44;;;;;;;13.20;11.03;;;6.40;1.00;6.80;101213.00;;;;5009441;28;20454;-79
2022/03/06 09:40:14;;;;;;;14.43;11.03;;;6.40;1.00;6.70;101211.00;;;;5036115;28;20446;-76
2022/03/06 09:42:43;;;;;;;11.97;10.33;;;6.40;1.00;6.80;101217.00;;;;5020006;28;20457;-78
2022/03/06 09:45:14;;;;;;;12.23;10.97;;;6.30;1.00;6.90;101208.00;;;;5009040;28;20509;-77
2022/03/06 09:47:45;;;;;;;14.93;11.03;;;6.50;1.00;6.90;101169.00;;;;5000582;28;20451;-77
2022/03/06 09:50:15;;;;;;;12.30;11.10;;;6.40;1.00;7.00;101225.00;;;;4998414;28;20478;-78
2022/03/06 09:52:45;;;;;;;9.90;8.90;;;6.50;1.00;7.10;101219.00;;;;5000200;28;20442;-78
2022/03/06 09:55:14;;;;;;;11.10;9.70;;;6.70;1.00;7.20;101220.00;;;;4995658;28;20979;-77
2022/03/06 09:57:43;;;;;;;10.57;9.57;;;6.90;1.00;7.40;101224.00;;;;5002485;28;20453;-79
2022/03/06 10:00:12;;;;;;;11.20;10.00;;;7.00;1.00;7.70;101211.00;;;;4999695;28;20925;-78
2022/03/06 10:02:58;;;;;;;10.00;9.00;;;7.20;1.00;7.90;101226.00;;;;5005521;28;20561;-79
2022/03/06 10:05:33;;;;;;;10.70;9.60;;;7.40;1.00;7.90;101227.00;;;;5011932;28;20482;-78
2022/03/06 10:08:24;;;;;;;12.57;10.27;;;7.50;1.00;7.80;101192.00;;;;5006736;28;20452;-78
2022/03/06 10:10:57;;;;;;;11.10;9.50;;;7.50;1.00;7.70;101213.00;;;;5000695;28;20474;-77
2022/03/06 10:13:29;;;;;;;13.10;10.03;;;6.90;1.00;7.80;101205.00;;;;5010768;28;21045;-78
2022/03/06 10:16:10;;;;;;;10.27;9.07;;;7.40;1.00;7.60;101186.00;;;;5000953;28;20482;-77
2022/03/06 10:18:41;;;;;;;9.73;8.73;;;7.30;1.00;7.60;101203.00;;;;5014647;28;20476;-78
2022/03/06 10:21:17;;;;;;;10.03;9.00;;;7.30;1.00;7.90;101204.00;;;;5013113;28;20550;-78
2022/03/06 10:23:47;;;;;;;10.47;9.37;;;7.50;1.00;8.20;101186.00;;;;5001969;28;20469;-79
2022/03/06 10:26:20;;;;;;;8.37;7.57;;;7.70;1.00;8.20;101215.00;;;;4997004;28;20521;-80
2022/03/06 10:28:55;;;;;;;9.80;8.67;;;7.80;1.00;8.00;101213.00;;;;4998551;28;20454;-79
2022/03/06 10:31:26;;;;;;;9.73;8.70;;;7.80;1.00;8.20;101175.00;;;;4994905;28;21046;-78
2022/03/06 10:34:11;;;;;;;8.33;7.43;;;7.80;1.00;8.30;101176.00;;;;4996189;28;20452;-78
2022/03/06 10:36:42;;;;;;;9.30;8.10;;;8.00;1.00;8.60;101197.00;;;;4996398;28;20520;-77
2022/03/06 10:39:14;;;;;;;9.70;8.33;;;8.30;1.00;9.00;101205.00;;;;4994867;28;20537;-78
2022/03/06 10:41:47;;;;;;;8.97;8.10;;;8.70;1.00;9.40;101190.00;;;;5016625;28;20492;-84
2022/03/06 10:44:17;;;;;;;8.40;7.07;;;9.00;1.00;9.20;101192.00;;;;4998236;28;20472;-77
2022/03/06 10:46:59;;;;;;;8.20;7.30;;;9.20;1.00;9.50;101206.00;;;;5007658;28;20454;-77
2022/03/06 10:49:28;;;;;;;8.20;7.40;;;9.30;1.00;9.50;101196.00;;;;5013705;28;21537;-78
2022/03/06 10:51:57;;;;;;;8.00;7.20;;;9.20;1.00;9.50;101168.00;;;;5001269;28;20443;-79
2022/03/06 10:54:25;;;;;;;8.33;7.53;;;9.20;1.00;9.70;101192.00;;;;5013037;28;20478;-78
2022/03/06 10:57:10;;;;;;;9.23;8.07;;;9.40;1.00;9.60;101203.00;;;;5002261;28;21026;-76
2022/03/06 10:59:41;;;;;;;9.30;7.50;;;9.30;1.00;9.30;101184.00;;;;4999034;28;20553;-82
2022/03/06 11:02:13;;;;;;;10.10;8.03;;;9.10;1.00;9.30;101181.00;;;;5027182;28;20498;-78
2022/03/06 11:04:43;;;;;;;7.70;5.93;;;9.00;1.00;9.00;101182.00;;;;5016431;28;20811;-79
2022/03/06 11:07:12;;;;;;;7.90;7.10;;;8.90;1.00;9.00;101191.00;;;;5015836;28;21069;-79